createdAt,value
2023-03-21T00:01:31.548Z,23.2
2023-03-21T00:16:41.867Z,25
2023-03-21T00:31:52.302Z,24.4
2023-03-21T00:47:08.313Z,24.1
2023-03-21T01:02:18.948Z,25
2023-03-21T01:17:29.040Z,23.7
2023-03-21T01:32:40.624Z,25.6
2023-03-21T01:47:53.518Z,24.8
2023-03-21T02:03:21.195Z,25.4
2023-03-21T02:18:46.152Z,23.3
2023-03-21T02:33:55.983Z,21.6
2023-03-21T02:49:05.839Z,21.3
2023-03-21T03:04:16.384Z,21.7
2023-03-21T03:19:27.507Z,20.8
2023-03-21T03:34:37.503Z,19.2
2023-03-21T03:49:47.332Z,19.9
2023-03-21T04:04:56.945Z,18.8
2023-03-21T04:20:20.837Z,18.3
2023-03-21T04:35:47.209Z,21.1
2023-03-21T04:50:59.760Z,22
2023-03-21T05:06:09.384Z,21.7
2023-03-21T05:21:22.289Z,19.7
2023-03-21T05:36:32.249Z,17.6
2023-03-21T05:51:41.900Z,15.5
2023-03-21T06:06:51.578Z,15.4
2023-03-21T06:22:01.072Z,16.6
2023-03-21T06:37:10.511Z,18
2023-03-21T06:52:26.298Z,18.4
2023-03-21T07:07:36.043Z,20.3
2023-03-21T07:22:45.660Z,20.3
2023-03-21T07:37:55.473Z,19
2023-03-21T07:53:05.378Z,20.6
2023-03-21T08:08:15.351Z,18.6
2023-03-21T08:23:25.496Z,17
2023-03-21T08:38:35.122Z,17
2023-03-21T08:53:44.778Z,17.2
2023-03-21T09:08:54.787Z,17.1
2023-03-21T09:24:04.449Z,16.4
2023-03-21T09:39:14.551Z,18.8
2023-03-21T09:54:24.078Z,17.3
2023-03-21T10:09:33.796Z,17
2023-03-21T10:24:43.589Z,17
2023-03-21T10:39:53.698Z,16
2023-03-21T10:55:03.408Z,15.9
2023-03-21T11:10:28.543Z,14
2023-03-21T11:25:39.936Z,12.6
2023-03-21T11:40:50.871Z,13.3
2023-03-21T11:56:00.982Z,14
2023-03-21T12:11:10.267Z,12.3
2023-03-21T12:26:19.908Z,11.9
2023-03-21T12:41:29.310Z,12.2
2023-03-21T12:56:39.452Z,15
2023-03-21T13:11:50.915Z,10.7
2023-03-21T13:27:01.247Z,11.8
2023-03-21T13:42:10.891Z,10.6
2023-03-21T13:57:21.037Z,8.8
2023-03-21T14:12:31.154Z,12.2
2023-03-21T14:27:40.988Z,10.3
2023-03-21T14:42:51.156Z,11.2
2023-03-21T14:58:01.370Z,11.1
2023-03-21T15:13:12.140Z,11.3
2023-03-21T15:28:22.372Z,11
2023-03-21T15:43:32.491Z,14.5
2023-03-21T15:58:42.751Z,11.1
2023-03-21T16:13:52.776Z,9
2023-03-21T16:29:02.927Z,8
2023-03-21T16:44:12.952Z,6.9
2023-03-21T16:59:23.419Z,9.1
2023-03-21T17:14:33.704Z,8.5
2023-03-21T17:29:43.810Z,8.3
2023-03-21T17:44:54.249Z,7.6
2023-03-21T18:00:04.316Z,7.6
2023-03-21T18:15:17.185Z,8.2
2023-03-21T18:31:07.286Z,7.3
2023-03-21T18:46:29.152Z,7.7
2023-03-21T19:01:38.730Z,5.9
2023-03-21T19:18:23.075Z,20.4
2023-03-21T19:34:10.011Z,7.4
2023-03-21T19:49:22.094Z,6.3
2023-03-21T20:05:06.258Z,7.9
2023-03-21T20:20:16.369Z,5.5
2023-03-21T20:36:39.902Z,6.2
2023-03-21T20:53:05.796Z,5.7
2023-03-21T21:08:17.356Z,6.4
2023-03-21T21:23:29.704Z,5.8
2023-03-21T21:38:39.543Z,6.2
2023-03-21T21:53:49.046Z,6.3
2023-03-21T22:08:58.610Z,6.6
2023-03-21T22:24:08.006Z,6.4
2023-03-21T22:39:17.632Z,6.3
2023-03-21T22:54:27.313Z,5.7
2023-03-21T23:09:36.858Z,6.3
2023-03-21T23:24:46.764Z,5.9
2023-03-21T23:39:56.344Z,6.7
2023-03-21T23:55:05.698Z,6.9
